Time;durP1;ratioP1;P1;durP2;ratioP2;P2;SDS_P1;SDS_P2;PMS_P1;PMS_P2;Temp;Humidity;BMP_temperature;BMP_pressure;BME280_temperature;BME280_humidity;BME280_pressure;Samples;Min_cycle;Max_cycle;Signal;HPM_P1;HPM_P2
2021/04/20 00:00:56;;;;;;;33.47;22.23;;;8.30;81.10;;;;;;5095440;28;20024;-35
2021/04/20 00:03:22;;;;;;;42.40;24.75;;;8.30;81.20;;;;;;5095783;28;20024;-36
2021/04/20 00:05:47;;;;;;;39.20;24.38;;;8.40;80.70;;;;;;5095175;28;20031;-36
2021/04/20 00:08:13;;;;;;;42.33;26.23;;;8.30;81.00;;;;;;5095434;28;20024;-36
2021/04/20 00:10:39;;;;;;;41.53;24.83;;;8.20;81.50;;;;;;5095278;28;20133;-36
2021/04/20 00:13:04;;;;;;;39.60;24.38;;;8.10;81.90;;;;;;5093858;28;20030;-36
2021/04/20 00:15:32;;;;;;;42.83;24.80;;;8.20;81.60;;;;;;5095162;28;20028;-36
2021/04/20 00:18:04;;;;;;;39.28;24.13;;;8.10;82.00;;;;;;5095128;28;20028;-36
2021/04/20 00:20:29;;;;;;;37.30;23.95;;;8.10;82.00;;;;;;5095339;28;20059;-36
2021/04/20 00:22:55;;;;;;;38.22;24.25;;;8.20;81.40;;;;;;5094992;28;20066;-36
2021/04/20 00:25:22;;;;;;;36.63;23.70;;;8.10;81.90;;;;;;5094823;28;20028;-36
2021/04/20 00:27:48;;;;;;;40.83;24.17;;;8.10;81.70;;;;;;5094802;28;20157;-36
2021/04/20 00:30:14;;;;;;;45.25;25.83;;;8.00;82.00;;;;;;5094792;28;20491;-36
2021/04/20 00:32:40;;;;;;;44.00;24.48;;;7.80;82.50;;;;;;5094989;28;20031;-36
2021/04/20 00:35:07;;;;;;;39.40;24.25;;;7.80;82.70;;;;;;5093402;28;20020;-36
2021/04/20 00:37:33;;;;;;;39.83;23.02;;;7.80;82.80;;;;;;5094583;28;20024;-36
2021/04/20 00:39:59;;;;;;;38.80;23.33;;;7.80;83.10;;;;;;5095382;28;20417;-36
2021/04/20 00:42:26;;;;;;;39.58;23.27;;;7.80;83.00;;;;;;5094469;28;20020;-36
2021/04/20 00:44:52;;;;;;;39.88;24.20;;;7.80;83.10;;;;;;5094847;28;20056;-36
2021/04/20 00:47:17;;;;;;;34.95;21.52;;;7.80;83.20;;;;;;5094813;28;20515;-36
2021/04/20 00:49:43;;;;;;;39.60;24.20;;;7.70;83.10;;;;;;5094432;28;20128;-36
2021/04/20 00:52:09;;;;;;;38.97;24.42;;;7.70;83.40;;;;;;5094427;28;20085;-36
2021/04/20 00:54:34;;;;;;;42.42;24.73;;;7.60;83.40;;;;;;5094661;28;20024;-36
2021/04/20 00:57:00;;;;;;;37.22;23.75;;;7.70;83.10;;;;;;5093499;28;20028;-36
2021/04/20 00:59:25;;;;;;;40.38;24.33;;;7.60;82.80;;;;;;5094122;28;20052;-36
2021/04/20 01:01:51;;;;;;;41.60;25.23;;;7.50;83.50;;;;;;5092839;28;20017;-36
2021/04/20 01:04:18;;;;;;;40.95;26.17;;;7.50;83.70;;;;;;5094430;28;20035;-36
2021/04/20 01:06:46;;;;;;;42.65;25.70;;;7.40;83.80;;;;;;5094215;28;20024;-36
2021/04/20 01:09:12;;;;;;;42.72;23.90;;;7.40;84.00;;;;;;5092781;28;20028;-37
2021/04/20 01:11:40;;;;;;;48.67;26.10;;;7.40;83.60;;;;;;5094364;28;20379;-36
2021/04/20 01:14:07;;;;;;;46.38;27.23;;;7.30;83.80;;;;;;5094032;28;20471;-35
2021/04/20 01:16:34;;;;;;;45.42;24.83;;;7.30;84.30;;;;;;5094278;28;20023;-35
2021/04/20 01:19:01;;;;;;;36.92;23.88;;;7.30;84.40;;;;;;5093873;28;20036;-35
2021/04/20 01:21:27;;;;;;;41.78;24.63;;;7.30;84.60;;;;;;5094149;28;20047;-36
2021/04/20 01:24:03;;;;;;;41.25;25.30;;;7.20;84.60;;;;;;5093810;28;20028;-36
2021/04/20 01:26:42;;;;;;;43.25;25.67;;;7.20;84.60;;;;;;5093946;28;20032;-36
2021/04/20 01:29:08;;;;;;;39.75;24.58;;;7.20;84.50;;;;;;5093759;28;20016;-36
2021/04/20 01:31:36;;;;;;;47.38;27.27;;;7.20;84.80;;;;;;5093735;28;20051;-35
2021/04/20 01:34:03;;;;;;;44.40;26.42;;;7.30;84.40;;;;;;5094129;28;20099;-36
2021/04/20 01:36:29;;;;;;;45.35;28.30;;;7.30;84.40;;;;;;5094039;28;20077;-35
2021/04/20 01:38:56;;;;;;;50.25;27.88;;;7.20;84.70;;;;;;5094012;28;20452;-35
2021/04/20 01:41:24;;;;;;;45.88;26.33;;;7.30;84.70;;;;;;5092219;28;20023;-35
2021/04/20 01:43:52;;;;;;;40.17;23.38;;;7.20;84.40;;;;;;5093116;28;20103;-35
2021/04/20 01:46:19;;;;;;;39.28;23.42;;;7.00;85.10;;;;;;5093699;28;20035;-36
2021/04/20 01:48:49;;;;;;;41.45;23.70;;;7.00;85.30;;;;;;5093253;28;20044;-36
2021/04/20 01:51:17;;;;;;;43.90;26.75;;;6.90;85.30;;;;;;5093510;28;20027;-35
2021/04/20 01:53:44;;;;;;;45.65;25.52;;;6.90;85.40;;;;;;5093365;28;20023;-35
2021/04/20 01:56:11;;;;;;;47.13;27.15;;;6.90;85.60;;;;;;5093688;28;20024;-35
2021/04/20 01:58:39;;;;;;;47.75;27.23;;;6.90;85.50;;;;;;5092173;28;20024;-35
2021/04/20 02:01:08;;;;;;;43.83;26.60;;;6.90;85.70;;;;;;5094466;28;20048;-35
2021/04/20 02:03:34;;;;;;;44.80;25.80;;;6.90;85.80;;;;;;5092289;28;20084;-35
2021/04/20 02:06:01;;;;;;;46.63;26.95;;;6.90;85.70;;;;;;5093209;28;20102;-35
2021/04/20 02:08:27;;;;;;;46.67;26.42;;;7.00;85.60;;;;;;5093102;28;20051;-35
2021/04/20 02:10:54;;;;;;;49.67;26.77;;;7.10;85.40;;;;;;5093265;28;20031;-35
2021/04/20 02:13:20;;;;;;;44.70;26.05;;;7.10;84.30;;;;;;5091869;28;20028;-35
2021/04/20 02:15:46;;;;;;;45.08;26.67;;;7.00;84.70;;;;;;5091956;28;20020;-35
2021/04/20 02:18:13;;;;;;;47.28;28.00;;;7.00;84.90;;;;;;5091797;28;20027;-35
2021/04/20 02:20:40;;;;;;;52.47;27.25;;;6.90;85.30;;;;;;5093169;28;20206;-35
2021/04/20 02:23:06;;;;;;;45.85;25.83;;;6.80;85.40;;;;;;5093325;28;20099;-35
2021/04/20 02:25:33;;;;;;;41.60;25.35;;;6.80;85.50;;;;;;5093102;28;20042;-35
2021/04/20 02:28:00;;;;;;;46.10;27.67;;;6.90;85.60;;;;;;5092970;28;20038;-36
2021/04/20 02:30:27;;;;;;;47.38;26.17;;;6.80;85.60;;;;;;5093236;28;20031;-35
2021/04/20 02:32:55;;;;;;;50.28;25.55;;;6.80;85.70;;;;;;5093323;28;20388;-36
2021/04/20 02:35:21;;;;;;;44.53;27.65;;;6.80;85.70;;;;;;5093109;28;20051;-35
2021/04/20 02:37:47;;;;;;;47.83;27.55;;;6.80;85.90;;;;;;5093287;28;20020;-35
2021/04/20 02:40:25;;;;;;;43.10;26.75;;;6.90;85.40;;;;;;5092987;28;20061;-36
2021/04/20 02:42:52;;;;;;;51.22;28.20;;;6.90;85.20;;;;;;5093259;28;20028;-35
2021/04/20 02:45:21;;;;;;;47.35;27.13;;;6.90;85.20;;;;;;5093196;28;20162;-35
2021/04/20 02:47:47;;;;;;;47.92;28.00;;;7.30;83.80;;;;;;5092767;28;20126;-35
2021/04/20 02:50:19;;;;;;;48.97;28.38;;;7.10;84.30;;;;;;5092921;28;20102;-35
2021/04/20 02:52:49;;;;;;;51.20;29.83;;;7.10;84.30;;;;;;5092918;28;20026;-35
2021/04/20 02:55:15;;;;;;;59.25;31.67;;;6.90;84.70;;;;;;5093748;28;20491;-36
2021/04/20 02:57:48;;;;;;;63.85;34.35;;;7.00;85.30;;;;;;5092902;28;20024;-36
2021/04/20 03:00:20;;;;;;;54.33;31.60;;;7.10;85.10;;;;;;5093099;28;20089;-36
2021/04/20 03:02:51;;;;;;;55.80;30.40;;;7.00;85.00;;;;;;5093039;28;20036;-36
2021/04/20 03:05:19;;;;;;;48.70;29.65;;;7.00;84.50;;;;;;5092850;28;20024;-35
2021/04/20 03:07:46;;;;;;;56.72;31.05;;;6.80;85.10;;;;;;5093067;28;20032;-37
2021/04/20 03:10:14;;;;;;;48.85;29.35;;;6.90;85.40;;;;;;5093032;28;20024;-37
2021/04/20 03:12:41;;;;;;;51.33;31.52;;;7.00;85.00;;;;;;5092649;28;20425;-37
2021/04/20 03:15:10;;;;;;;55.38;29.70;;;7.00;85.40;;;;;;5092681;28;20028;-36
2021/04/20 03:17:37;;;;;;;52.83;29.08;;;7.00;85.40;;;;;;5092945;28;20490;-36
2021/04/20 03:20:04;;;;;;;57.55;31.00;;;7.20;84.90;;;;;;5094087;28;20016;-36
2021/04/20 03:22:30;;;;;;;51.92;27.55;;;7.20;84.80;;;;;;5096408;28;20467;-36
2021/04/20 03:25:05;;;;;;;52.75;27.92;;;7.10;85.10;;;;;;5095967;28;20098;-36
2021/04/20 03:27:31;;;;;;;53.55;30.40;;;7.00;85.40;;;;;;5096172;28;20030;-40
2021/04/20 03:29:57;;;;;;;50.55;27.38;;;7.00;85.70;;;;;;5095959;28;20092;-36
2021/04/20 03:32:22;;;;;;;53.58;29.13;;;7.00;85.30;;;;;;5096219;28;20020;-36
2021/04/20 03:34:59;;;;;;;49.90;29.60;;;7.10;85.70;;;;;;5094518;28;20028;-36
2021/04/20 03:37:36;;;;;;;57.95;31.48;;;7.10;85.40;;;;;;5096193;28;20020;-36
2021/04/20 03:40:04;;;;;;;60.47;29.98;;;7.10;85.50;;;;;;5096161;28;20024;-36
2021/04/20 03:42:35;;;;;;;55.10;31.05;;;7.10;85.90;;;;;;5095328;28;20107;-36
2021/04/20 03:45:04;;;;;;;67.63;33.60;;;7.00;85.90;;;;;;5095951;28;20464;-36
2021/04/20 03:47:41;;;;;;;60.22;32.97;;;7.10;86.00;;;;;;5095624;28;20020;-35
2021/04/20 03:50:12;;;;;;;58.63;30.77;;;7.20;85.60;;;;;;5095873;28;20064;-35
2021/04/20 03:53:01;;;;;;;52.85;30.13;;;7.30;85.20;;;;;;5095684;28;20028;-35
2021/04/20 03:55:29;;;;;;;51.65;30.48;;;7.30;84.30;;;;;;5095708;28;20028;-35
2021/04/20 03:57:55;;;;;;;54.97;29.25;;;7.20;84.90;;;;;;5095395;28;20012;-36
2021/04/20 04:00:23;;;;;;;46.28;27.85;;;7.00;84.90;;;;;;5095445;28;20032;-35
2021/04/20 04:02:52;;;;;;;49.15;26.75;;;6.60;85.80;;;;;;5095483;28;20048;-36
2021/04/20 04:05:21;;;;;;;46.88;27.67;;;6.50;86.50;;;;;;5095339;28;20054;-36
2021/04/20 04:07:50;;;;;;;52.15;28.40;;;6.30;86.70;;;;;;5096193;28;20460;-36
2021/04/20 04:10:17;;;;;;;46.50;25.52;;;6.20;87.40;;;;;;5095260;28;20431;-37
2021/04/20 04:12:45;;;;;;;51.22;27.55;;;6.40;86.60;;;;;;5095514;28;20028;-37
2021/04/20 04:15:13;;;;;;;52.92;27.45;;;6.40;85.80;;;;;;5095647;28;20031;-37
2021/04/20 04:17:42;;;;;;;53.72;26.35;;;6.30;86.10;;;;;;5095171;28;20024;-37
2021/04/20 04:20:10;;;;;;;49.63;28.20;;;6.20;86.90;;;;;;5095214;28;20391;-37
2021/04/20 04:22:42;;;;;;;55.10;29.83;;;6.20;86.90;;;;;;5095146;28;20102;-37
2021/04/20 04:25:12;;;;;;;51.10;28.52;;;6.20;87.10;;;;;;5095162;28;20024;-37
2021/04/20 04:27:43;;;;;;;56.97;28.60;;;6.20;87.60;;;;;;5095254;28;20088;-37
2021/04/20 04:30:10;;;;;;;55.55;31.40;;;6.50;86.70;;;;;;5094882;28;20032;-37
2021/04/20 04:32:39;;;;;;;54.53;28.67;;;6.40;86.60;;;;;;5095088;28;20055;-37
2021/04/20 04:35:06;;;;;;;58.15;30.73;;;6.30;87.00;;;;;;5095514;28;20460;-37
2021/04/20 04:37:34;;;;;;;60.00;29.10;;;6.30;87.30;;;;;;5094619;28;20039;-38
2021/04/20 04:40:01;;;;;;;48.47;30.05;;;6.30;87.30;;;;;;5094652;28;20024;-36
2021/04/20 04:42:27;;;;;;;57.13;32.95;;;6.20;87.80;;;;;;5094591;28;20353;-37
2021/04/20 04:44:53;;;;;;;64.97;33.05;;;6.20;88.00;;;;;;5094561;28;20028;-37
2021/04/20 04:47:18;;;;;;;59.80;31.73;;;6.30;87.80;;;;;;5094495;28;20031;-36
2021/04/20 04:49:46;;;;;;;58.45;31.02;;;6.20;88.10;;;;;;5094317;28;20044;-36
2021/04/20 04:52:14;;;;;;;53.40;29.20;;;6.20;88.20;;;;;;5094736;28;20463;-36
2021/04/20 04:54:44;;;;;;;52.63;29.02;;;6.20;88.20;;;;;;5094619;28;20028;-36
2021/04/20 04:57:13;;;;;;;53.20;30.40;;;6.30;88.20;;;;;;5094940;28;20027;-36
2021/04/20 04:59:40;;;;;;;55.92;30.52;;;6.20;87.90;;;;;;5094542;28;20024;-36
2021/04/20 05:02:07;;;;;;;53.47;30.77;;;6.30;87.70;;;;;;5094176;28;20103;-36
2021/04/20 05:04:33;;;;;;;53.75;30.42;;;6.60;86.80;;;;;;5094316;28;20035;-36
2021/04/20 05:06:59;;;;;;;59.45;30.38;;;6.80;85.90;;;;;;5094247;28;20031;-36
2021/04/20 05:09:25;;;;;;;56.60;31.30;;;6.70;86.00;;;;;;5094335;28;20416;-36
2021/04/20 05:11:52;;;;;;;64.95;33.85;;;6.70;86.50;;;;;;5094128;28;20031;-36
2021/04/20 05:14:20;;;;;;;67.13;33.67;;;6.80;86.50;;;;;;5092584;28;20479;-36
2021/04/20 05:16:51;;;;;;;62.97;32.22;;;6.60;86.70;;;;;;5094307;28;20541;-36
2021/04/20 05:19:36;;;;;;;62.92;34.97;;;6.60;87.10;;;;;;5093989;28;20107;-36
2021/04/20 05:22:01;;;;;;;59.20;31.50;;;6.60;87.00;;;;;;5092728;28;20020;-36
2021/04/20 05:24:28;;;;;;;59.70;32.97;;;6.70;86.90;;;;;;5093753;28;20150;-37
2021/04/20 05:26:55;;;;;;;59.80;33.63;;;6.80;86.90;;;;;;5093948;28;20100;-36
2021/04/20 05:29:21;;;;;;;61.70;33.85;;;6.80;86.80;;;;;;5093889;28;20471;-36
2021/04/20 05:31:46;;;;;;;78.22;35.47;;;6.80;86.90;;;;;;5092411;28;20078;-36
2021/04/20 05:34:12;;;;;;;70.20;36.75;;;7.00;87.00;;;;;;5093840;28;20036;-36
2021/04/20 05:36:38;;;;;;;53.35;31.67;;;7.20;86.30;;;;;;5093604;28;20016;-36
2021/04/20 05:39:08;;;;;;;67.70;36.22;;;7.30;86.00;;;;;;5093837;28;20099;-36
2021/04/20 05:41:36;;;;;;;66.00;36.10;;;7.30;85.70;;;;;;5093712;28;20016;-36
2021/04/20 05:44:04;;;;;;;67.32;35.97;;;7.30;85.50;;;;;;5093176;28;20142;-36
2021/04/20 05:46:30;;;;;;;70.20;35.90;;;7.40;85.20;;;;;;5093235;28;20050;-36
2021/04/20 05:48:56;;;;;;;66.57;35.10;;;7.50;85.00;;;;;;5093277;28;20048;-36
2021/04/20 05:51:24;;;;;;;56.28;32.55;;;7.70;84.30;;;;;;5093722;28;20020;-36
2021/04/20 05:53:51;;;;;;;62.80;33.80;;;7.70;83.80;;;;;;5091783;28;20048;-37
2021/04/20 05:56:19;;;;;;;55.65;30.58;;;7.80;83.60;;;;;;5091842;28;20091;-36
2021/04/20 05:58:45;;;;;;;59.78;32.80;;;7.70;83.50;;;;;;5093061;28;20065;-36
2021/04/20 06:01:12;;;;;;;55.90;33.38;;;7.70;83.70;;;;;;5093134;28;20024;-36
2021/04/20 06:03:41;;;;;;;61.67;32.40;;;7.80;83.20;;;;;;5093096;28;20126;-36
2021/04/20 06:06:08;;;;;;;57.83;32.50;;;7.80;83.20;;;;;;5092882;28;20074;-36
2021/04/20 06:08:36;;;;;;;53.45;31.80;;;7.80;83.30;;;;;;5093068;28;20028;-36
2021/04/20 06:11:07;;;;;;;62.95;33.35;;;7.90;83.00;;;;;;5092853;28;20028;-35
2021/04/20 06:13:32;;;;;;;54.83;31.63;;;8.10;83.00;;;;;;5091488;28;20028;-36
2021/04/20 06:16:00;;;;;;;59.08;31.13;;;8.20;82.00;;;;;;5091501;28;20388;-35
2021/04/20 06:18:26;;;;;;;53.47;31.50;;;8.20;82.00;;;;;;5091537;28;20035;-35
2021/04/20 06:20:55;;;;;;;47.45;29.92;;;8.30;82.10;;;;;;5077127;28;20103;-36
2021/04/20 06:23:22;;;;;;;57.70;31.25;;;8.30;81.70;;;;;;5093068;28;20035;-36
2021/04/20 06:25:50;;;;;;;53.33;30.85;;;8.60;81.60;;;;;;5093019;28;20089;-36
2021/04/20 06:28:16;;;;;;;54.40;30.35;;;8.70;81.00;;;;;;5092983;28;20020;-37
2021/04/20 06:30:43;;;;;;;51.33;30.27;;;8.80;80.70;;;;;;5093305;28;20077;-38
2021/04/20 06:33:09;;;;;;;53.42;26.58;;;9.00;79.80;;;;;;5091634;28;20077;-37
2021/04/20 06:35:37;;;;;;;50.22;30.52;;;9.00;79.30;;;;;;5093021;28;20460;-38
2021/04/20 06:38:04;;;;;;;51.20;30.23;;;8.90;79.50;;;;;;5093158;28;20032;-36
2021/04/20 06:40:34;;;;;;;51.75;28.65;;;9.10;79.20;;;;;;5075238;28;20070;-36
2021/04/20 06:43:05;;;;;;;48.38;27.42;;;9.30;78.20;;;;;;5092777;28;20409;-37
2021/04/20 06:45:41;;;;;;;50.30;29.58;;;9.30;77.90;;;;;;5093130;28;20073;-36
2021/04/20 06:48:19;;;;;;;47.60;27.73;;;9.40;77.90;;;;;;5092825;28;20040;-37
2021/04/20 06:50:47;;;;;;;50.17;29.88;;;9.50;77.50;;;;;;5092691;28;20024;-36
2021/04/20 06:53:19;;;;;;;47.35;27.55;;;9.70;77.00;;;;;;5092204;28;20089;-36
2021/04/20 06:56:07;;;;;;;52.53;31.67;;;9.90;76.10;;;;;;5096187;28;20094;-37
2021/04/20 06:59:02;;;;;;;51.97;30.73;;;10.10;75.50;;;;;;5096431;28;20020;-36
2021/04/20 07:01:46;;;;;;;50.78;30.60;;;10.40;74.40;;;;;;5095791;28;20376;-36
2021/04/20 07:04:14;;;;;;;50.28;30.48;;;10.40;74.00;;;;;;5096181;28;20114;-37
2021/04/20 07:07:02;;;;;;;48.45;27.95;;;10.60;73.50;;;;;;5095832;28;20071;-36
2021/04/20 07:09:32;;;;;;;51.42;28.08;;;10.80;72.60;;;;;;5095295;28;20036;-36
2021/04/20 07:12:00;;;;;;;49.65;29.08;;;11.10;71.90;;;;;;5095928;28;20032;-37
2021/04/20 07:14:35;;;;;;;46.80;29.38;;;11.30;70.50;;;;;;5095589;28;20047;-37
2021/04/20 07:17:10;;;;;;;48.13;28.15;;;11.50;69.50;;;;;;5096429;28;20024;-37
2021/04/20 07:20:00;;;;;;;46.30;29.02;;;11.40;69.60;;;;;;5095900;28;20154;-37
2021/04/20 07:22:57;;;;;;;39.13;23.70;;;11.40;69.60;;;;;;5095957;28;20107;-37
2021/04/20 07:26:00;;;;;;;38.13;24.77;;;11.80;67.00;;;;;;5095747;28;20484;-38
2021/04/20 07:28:37;;;;;;;41.55;26.90;;;11.70;67.10;;;;;;5096882;28;20102;-36
2021/04/20 07:31:06;;;;;;;34.50;22.55;;;11.70;68.00;;;;;;5095875;28;20524;-36
2021/04/20 07:33:48;;;;;;;37.20;22.40;;;11.90;65.90;;;;;;5095255;28;20024;-37
2021/04/20 07:36:35;;;;;;;43.67;25.05;;;11.90;65.00;;;;;;5095577;28;20456;-36
2021/04/20 07:39:17;;;;;;;37.75;21.38;;;11.90;65.60;;;;;;5095097;28;20031;-36
2021/04/20 07:41:59;;;;;;;31.58;21.88;;;12.10;65.20;;;;;;5095299;28;20145;-37
2021/04/20 07:44:44;;;;;;;34.90;22.50;;;12.60;63.00;;;;;;5093525;28;20063;-37
2021/04/20 07:47:12;;;;;;;37.95;20.83;;;12.50;62.70;;;;;;5095003;28;20027;-37
2021/04/20 07:50:00;;;;;;;30.38;19.50;;;12.70;62.00;;;;;;5095499;28;20044;-36
2021/04/20 07:52:34;;;;;;;31.67;19.23;;;13.20;59.30;;;;;;5094121;28;20433;-35
2021/04/20 07:55:15;;;;;;;30.65;18.10;;;12.80;59.60;;;;;;5095412;28;20035;-35
2021/04/20 07:57:43;;;;;;;29.83;18.65;;;13.20;58.30;;;;;;5095614;28;20456;-35
2021/04/20 08:00:36;;;;;;;27.42;18.20;;;13.90;55.30;;;;;;5094943;28;20020;-35
2021/04/20 08:03:46;;;;;;;26.70;17.20;;;13.70;54.10;;;;;;5094365;28;20528;-36
2021/04/20 08:06:16;;;;;;;24.25;15.75;;;13.90;53.60;;;;;;5094635;28;20028;-35
2021/04/20 08:08:50;;;;;;;28.15;16.10;;;13.60;53.40;;;;;;5094740;28;20032;-35
2021/04/20 08:11:30;;;;;;;24.30;15.80;;;14.00;53.40;;;;;;5093947;28;20038;-36
2021/04/20 08:14:08;;;;;;;23.50;16.52;;;14.80;50.90;;;;;;5095090;28;20055;-35
2021/04/20 08:16:39;;;;;;;20.08;15.10;;;15.50;49.00;;;;;;5095365;28;20066;-36
2021/04/20 08:19:10;;;;;;;26.92;18.30;;;16.00;46.70;;;;;;5094740;28;20480;-36
2021/04/20 08:21:43;;;;;;;22.05;15.27;;;16.30;45.70;;;;;;5092794;28;20038;-37
2021/04/20 08:24:32;;;;;;;24.70;16.10;;;15.80;46.70;;;;;;5094299;28;20085;-37
2021/04/20 08:27:09;;;;;;;20.10;16.48;;;16.00;46.40;;;;;;5092670;28;20028;-36
2021/04/20 08:29:39;;;;;;;24.48;17.27;;;16.80;44.10;;;;;;5094932;28;20407;-37
2021/04/20 08:32:10;;;;;;;22.67;16.33;;;16.50;44.70;;;;;;5094924;28;20082;-35
2021/04/20 08:34:50;;;;;;;27.55;16.65;;;16.00;45.50;;;;;;5094538;28;20078;-35
2021/04/20 08:37:16;;;;;;;21.33;15.38;;;16.60;44.60;;;;;;5092790;28;20115;-35
2021/04/20 08:40:14;;;;;;;20.42;15.32;;;16.80;44.10;;;;;;5093888;28;20051;-36
2021/04/20 08:43:17;;;;;;;24.67;17.95;;;15.60;46.70;;;;;;5094373;28;20024;-36
2021/04/20 08:46:06;;;;;;;20.30;14.88;;;15.90;46.30;;;;;;5093649;28;20384;-35
2021/04/20 08:48:51;;;;;;;24.67;17.00;;;17.00;44.40;;;;;;5094239;28;20048;-35
2021/04/20 08:51:19;;;;;;;25.55;19.45;;;15.80;47.70;;;;;;5094229;28;20495;-35
2021/04/20 08:54:10;;;;;;;27.52;19.98;;;17.30;44.80;;;;;;5094560;28;20036;-35
2021/04/20 08:56:44;;;;;;;26.80;18.38;;;17.70;43.60;;;;;;5092622;28;20020;-37
2021/04/20 08:59:28;;;;;;;26.80;18.58;;;17.80;42.90;;;;;;5091794;28;20561;-35
2021/04/20 09:02:31;;;;;;;28.13;20.30;;;18.50;40.90;;;;;;5093615;28;20020;-36
2021/04/20 09:05:19;;;;;;;23.05;16.70;;;18.00;41.10;;;;;;5093845;28;20028;-36
2021/04/20 09:07:45;;;;;;;29.63;19.35;;;17.40;42.30;;;;;;5093531;28;20085;-36
2021/04/20 09:10:15;;;;;;;25.23;19.08;;;17.50;42.30;;;;;;5093315;28;20024;-36
2021/04/20 09:12:47;;;;;;;27.58;19.45;;;18.00;41.10;;;;;;5093685;28;20105;-36
2021/04/20 09:15:15;;;;;;;23.70;17.02;;;18.50;39.90;;;;;;5093524;28;20028;-35
2021/04/20 09:17:49;;;;;;;23.85;17.92;;;18.20;41.10;;;;;;5090937;28;20028;-36
2021/04/20 09:20:36;;;;;;;21.13;17.33;;;17.90;41.60;;;;;;5093317;28;20118;-36
2021/04/20 09:23:14;;;;;;;25.77;18.38;;;18.20;41.50;;;;;;5093212;28;20024;-36
2021/04/20 09:26:13;;;;;;;26.13;18.75;;;18.70;40.10;;;;;;5093740;28;20055;-36
2021/04/20 09:28:57;;;;;;;25.73;19.08;;;18.30;40.90;;;;;;5092944;28;20120;-36
2021/04/20 09:31:28;;;;;;;24.23;18.45;;;18.10;41.40;;;;;;5092573;28;20036;-35
2021/04/20 09:33:54;;;;;;;25.33;18.10;;;19.00;39.80;;;;;;5093881;28;20039;-36
2021/04/20 09:36:22;;;;;;;24.83;18.05;;;19.80;38.30;;;;;;5093858;28;20058;-36
2021/04/20 09:38:50;;;;;;;25.48;16.02;;;20.40;36.80;;;;;;5093122;28;20024;-35
2021/04/20 09:41:30;;;;;;;22.65;16.35;;;20.00;36.10;;;;;;5093564;28;20048;-35
2021/04/20 09:44:18;;;;;;;20.13;14.03;;;19.20;37.30;;;;;;5094224;28;20040;-35
2021/04/20 09:47:02;;;;;;;20.45;14.88;;;18.30;39.70;;;;;;5093382;28;20031;-35
2021/04/20 09:49:59;;;;;;;22.42;16.65;;;19.00;39.50;;;;;;5091723;28;20105;-36
2021/04/20 09:52:33;;;;;;;23.95;18.02;;;18.70;40.50;;;;;;5092372;28;20024;-36
2021/04/20 09:55:07;;;;;;;22.25;17.27;;;19.80;38.30;;;;;;5092287;28;20028;-35
2021/04/20 09:57:37;;;;;;;24.85;18.75;;;19.40;38.00;;;;;;5093563;28;20044;-36
2021/04/20 10:00:08;;;;;;;24.17;17.40;;;19.50;38.10;;;;;;5092055;28;20039;-36
2021/04/20 10:02:57;;;;;;;23.13;16.73;;;19.80;37.80;;;;;;5093707;28;20028;-37
2021/04/20 10:06:13;;;;;;;22.20;18.13;;;19.50;38.40;;;;;;5092966;28;20483;-35
2021/04/20 10:09:08;;;;;;;24.40;17.50;;;19.90;37.70;;;;;;5073857;28;20202;-36
2021/04/20 10:12:01;;;;;;;24.20;19.17;;;20.70;36.70;;;;;;5091621;28;20019;-36
2021/04/20 10:14:51;;;;;;;26.05;19.75;;;19.80;36.80;;;;;;5092314;28;20036;-35
2021/04/20 10:17:29;;;;;;;22.13;17.38;;;19.10;38.70;;;;;;5092360;28;20012;-36
2021/04/20 10:20:20;;;;;;;22.80;17.67;;;19.80;38.40;;;;;;5093158;28;20032;-37
2021/04/20 10:23:04;;;;;;;24.13;17.73;;;19.20;38.10;;;;;;5091932;28;20024;-36
2021/04/20 10:25:39;;;;;;;22.23;17.67;;;17.70;41.80;;;;;;5099189;28;20051;-35
2021/04/20 10:28:29;;;;;;;25.65;18.60;;;18.30;41.00;;;;;;5095781;28;20097;-36
2021/04/20 10:31:07;;;;;;;26.35;18.23;;;19.00;38.70;;;;;;5096040;28;20122;-40
2021/04/20 10:33:35;;;;;;;26.38;19.65;;;19.00;38.90;;;;;;5099205;28;20544;-36
2021/04/20 10:36:01;;;;;;;24.52;17.63;;;18.10;41.30;;;;;;5096508;28;20421;-35
2021/04/20 10:38:31;;;;;;;25.20;18.73;;;19.00;40.40;;;;;;5096097;28;20020;-35
2021/04/20 10:40:58;;;;;;;28.98;19.45;;;19.30;38.90;;;;;;5098860;28;20051;-36
2021/04/20 10:43:30;;;;;;;23.95;18.02;;;19.80;38.20;;;;;;5106140;28;20091;-36
2021/04/20 10:46:01;;;;;;;26.13;18.42;;;20.00;37.10;;;;;;5098180;28;20020;-35
2021/04/20 10:48:27;;;;;;;25.83;19.80;;;19.30;37.80;;;;;;5096910;28;20044;-37
2021/04/20 10:50:55;;;;;;;20.33;16.23;;;19.60;37.40;;;;;;5097987;28;20024;-37
2021/04/20 10:53:25;;;;;;;20.00;14.98;;;20.40;36.10;;;;;;5097031;28;20027;-36
2021/04/20 10:56:08;;;;;;;22.67;15.40;;;21.30;34.60;;;;;;5096778;28;20601;-37
2021/04/20 10:58:43;;;;;;;20.67;16.08;;;20.20;36.20;;;;;;5097211;28;20020;-37
2021/04/20 11:01:18;;;;;;;24.77;17.70;;;19.80;36.90;;;;;;5095872;28;20023;-38
2021/04/20 11:03:47;;;;;;;18.38;13.85;;;19.60;37.60;;;;;;5098236;28;20447;-38
2021/04/20 11:06:51;;;;;;;21.60;16.70;;;19.10;37.80;;;;;;5097189;28;20062;-36
2021/04/20 11:09:17;;;;;;;23.23;17.48;;;17.50;41.30;;;;;;5095652;28;20020;-37
2021/04/20 11:11:46;;;;;;;24.05;16.88;;;17.70;41.60;;;;;;5098316;28;20035;-37
2021/04/20 11:14:32;;;;;;;23.52;18.17;;;18.20;40.00;;;;;;5096845;28;20396;-38
2021/04/20 11:16:59;;;;;;;23.27;15.82;;;18.10;40.60;;;;;;5100054;28;20024;-37
2021/04/20 11:19:26;;;;;;;21.45;16.13;;;18.30;40.20;;;;;;5099038;28;20020;-37
2021/04/20 11:21:52;;;;;;;22.25;15.65;;;18.30;41.00;;;;;;5096438;28;20016;-40
2021/04/20 11:24:20;;;;;;;23.02;16.38;;;17.80;41.20;;;;;;5096986;28;20024;-37
2021/04/20 11:26:59;;;;;;;25.92;16.95;;;17.70;41.10;;;;;;5096262;28;20039;-38
2021/04/20 11:29:35;;;;;;;23.08;17.92;;;17.80;41.10;;;;;;5097323;28;20035;-37
2021/04/20 11:32:02;;;;;;;20.27;14.82;;;17.80;41.40;;;;;;5096847;28;20020;-37
2021/04/20 11:34:32;;;;;;;22.60;16.10;;;18.00;40.90;;;;;;5094715;28;20429;-37
2021/04/20 11:37:07;;;;;;;21.77;16.90;;;18.10;40.50;;;;;;5095963;28;20024;-40
2021/04/20 11:39:48;;;;;;;22.02;16.33;;;17.80;41.50;;;;;;5095414;28;20265;-37
2021/04/20 11:42:23;;;;;;;21.17;15.65;;;17.80;41.50;;;;;;5094958;28;20099;-36
2021/04/20 11:44:57;;;;;;;21.80;15.35;;;18.40;40.30;;;;;;5095849;28;20066;-37
2021/04/20 11:47:25;;;;;;;23.27;17.38;;;18.80;39.50;;;;;;5096298;28;20035;-37
2021/04/20 11:50:01;;;;;;;20.98;16.08;;;19.40;39.30;;;;;;5094344;28;20043;-36
2021/04/20 11:52:31;;;;;;;22.23;14.02;;;20.10;37.10;;;;;;5077475;28;20218;-36
2021/04/20 11:55:08;;;;;;;19.95;14.25;;;20.80;35.30;;;;;;5094586;28;20024;-36
2021/04/20 11:57:35;;;;;;;20.30;13.80;;;19.90;36.70;;;;;;5095530;28;20028;-36
2021/04/20 12:00:04;;;;;;;19.65;15.07;;;19.90;36.40;;;;;;5094835;28;20055;-37
2021/04/20 12:02:30;;;;;;;21.48;15.38;;;20.90;35.70;;;;;;5096231;28;20521;-37
2021/04/20 12:05:07;;;;;;;21.23;14.55;;;21.30;35.10;;;;;;5095062;28;20058;-36
2021/04/20 12:07:35;;;;;;;20.63;15.10;;;20.80;36.00;;;;;;5095300;28;20032;-36
2021/04/20 12:10:03;;;;;;;20.00;13.70;;;19.90;37.00;;;;;;5093750;28;20031;-37
2021/04/20 12:12:34;;;;;;;18.75;14.18;;;19.90;36.40;;;;;;5094972;28;20028;-36
2021/04/20 12:15:02;;;;;;;18.08;14.75;;;19.70;36.60;;;;;;5094710;28;20487;-36
2021/04/20 12:17:39;;;;;;;22.80;14.40;;;18.80;38.80;;;;;;5094903;28;20028;-37
2021/04/20 12:20:11;;;;;;;20.05;14.05;;;19.00;38.90;;;;;;5094386;28;20024;-37
2021/04/20 12:22:37;;;;;;;20.88;14.93;;;19.00;38.70;;;;;;5094502;28;20024;-37
2021/04/20 12:25:06;;;;;;;17.63;12.95;;;18.60;40.40;;;;;;5093738;28;20024;-37
2021/04/20 12:27:32;;;;;;;25.33;15.07;;;18.80;40.50;;;;;;5094526;28;20039;-37
2021/04/20 12:30:00;;;;;;;23.35;14.88;;;19.10;40.00;;;;;;5094933;28;20028;-36
2021/04/20 12:32:30;;;;;;;18.33;13.35;;;19.30;39.30;;;;;;5094824;28;20107;-35
2021/04/20 12:34:57;;;;;;;18.25;14.40;;;18.80;40.10;;;;;;5094991;28;20107;-37
2021/04/20 12:37:25;;;;;;;22.45;13.70;;;18.20;41.50;;;;;;5093410;28;20032;-38
2021/04/20 12:39:58;;;;;;;19.02;12.80;;;18.20;41.60;;;;;;5094816;28;20095;-36
2021/04/20 12:42:30;;;;;;;20.48;14.00;;;18.60;40.50;;;;;;5094379;28;20426;-37
2021/04/20 12:44:59;;;;;;;23.08;14.85;;;18.70;38.80;;;;;;5094132;28;20380;-38
2021/04/20 12:47:30;;;;;;;23.42;15.25;;;18.70;39.50;;;;;;5094224;28;20321;-37
2021/04/20 12:49:59;;;;;;;19.65;14.60;;;19.20;38.70;;;;;;5094180;28;20075;-37
2021/04/20 12:52:27;;;;;;;21.20;14.15;;;18.90;40.00;;;;;;5093782;28;20024;-37
2021/04/20 12:55:01;;;;;;;16.77;14.25;;;18.80;39.50;;;;;;5094142;28;20024;-36
2021/04/20 12:57:35;;;;;;;17.02;13.73;;;18.10;41.20;;;;;;5093335;28;20048;-37